createdAt,value
2023-08-23T00:03:40.313Z,100.00
2023-08-23T00:06:08.312Z,100.00
2023-08-23T00:08:36.288Z,100.00
2023-08-23T00:11:04.323Z,100.00
2023-08-23T00:13:32.314Z,100.00
2023-08-23T00:16:00.269Z,100.00
2023-08-23T00:18:28.232Z,100.00
2023-08-23T00:20:57.533Z,100.00
2023-08-23T00:23:25.550Z,100.00
2023-08-23T00:25:53.570Z,100.00
2023-08-23T00:28:21.596Z,100.00
2023-08-23T00:30:53.469Z,100.00
2023-08-23T00:33:21.713Z,100.00
2023-08-23T00:35:49.815Z,100.00
2023-08-23T00:38:19.271Z,100.00
2023-08-23T00:40:47.268Z,100.00
2023-08-23T00:43:15.414Z,100.00
2023-08-23T00:45:43.711Z,100.00
2023-08-23T00:48:13.361Z,100.00
2023-08-23T00:50:42.040Z,100.00
2023-08-23T00:53:10.285Z,100.00
2023-08-23T00:55:39.680Z,100.00
2023-08-23T00:58:07.653Z,100.00
2023-08-23T01:00:35.652Z,100.00
2023-08-23T01:03:03.655Z,100.00
2023-08-23T01:05:35.852Z,100.00
2023-08-23T01:08:05.926Z,100.00
2023-08-23T01:10:37.302Z,100.00
2023-08-23T01:13:10.205Z,100.00
2023-08-23T01:15:38.254Z,100.00
2023-08-23T01:18:06.734Z,100.00
2023-08-23T01:20:34.734Z,100.00
2023-08-23T01:23:11.631Z,100.00
2023-08-23T01:25:41.726Z,100.00
2023-08-23T01:28:09.765Z,100.00
2023-08-23T01:30:37.732Z,100.00
2023-08-23T01:33:08.238Z,100.00
2023-08-23T01:35:40.263Z,100.00
2023-08-23T01:38:09.638Z,100.00
2023-08-23T01:40:37.693Z,100.00
2023-08-23T01:43:06.019Z,100.00
2023-08-23T01:45:34.064Z,100.00
2023-08-23T01:48:02.077Z,100.00
2023-08-23T01:50:30.207Z,100.00
2023-08-23T01:52:58.183Z,100.00
2023-08-23T01:55:27.997Z,100.00
2023-08-23T01:57:55.950Z,100.00
2023-08-23T02:00:23.878Z,100.00
2023-08-23T02:02:51.916Z,100.00
2023-08-23T02:05:19.957Z,100.00
2023-08-23T02:07:48.013Z,100.00
2023-08-23T02:10:16.077Z,100.00
2023-08-23T02:12:45.430Z,100.00
2023-08-23T02:15:13.404Z,100.00
2023-08-23T02:17:41.453Z,100.00
2023-08-23T02:20:10.022Z,100.00
2023-08-23T02:22:38.035Z,100.00
2023-08-23T02:25:06.748Z,100.00
2023-08-23T02:27:34.680Z,100.00
2023-08-23T02:30:04.156Z,100.00
2023-08-23T02:32:32.215Z,100.00
2023-08-23T02:35:00.402Z,100.00
2023-08-23T02:37:28.332Z,100.00
2023-08-23T02:39:59.073Z,100.00
2023-08-23T02:42:27.524Z,100.00
2023-08-23T02:44:55.529Z,100.00
2023-08-23T02:47:25.066Z,100.00
2023-08-23T02:49:53.072Z,100.00
2023-08-23T02:52:21.304Z,100.00
2023-08-23T02:54:49.294Z,100.00
2023-08-23T02:57:17.281Z,100.00
2023-08-23T02:59:45.387Z,100.00
2023-08-23T03:02:13.469Z,100.00
2023-08-23T03:04:42.910Z,100.00
2023-08-23T03:07:10.946Z,100.00
2023-08-23T03:09:38.930Z,100.00
2023-08-23T03:12:07.761Z,100.00
2023-08-23T03:14:35.783Z,100.00
2023-08-23T03:17:03.755Z,100.00
2023-08-23T03:19:32.279Z,100.00
2023-08-23T03:22:01.906Z,100.00
2023-08-23T03:24:29.921Z,100.00
2023-08-23T03:26:57.879Z,100.00
2023-08-23T03:29:26.126Z,100.00
2023-08-23T03:31:54.089Z,100.00
2023-08-23T03:34:22.051Z,100.00
2023-08-23T03:36:50.991Z,100.00
2023-08-23T03:39:20.348Z,100.00
2023-08-23T03:41:49.043Z,100.00
2023-08-23T03:44:17.054Z,100.00
2023-08-23T03:46:45.081Z,100.00
2023-08-23T03:49:13.069Z,100.00
2023-08-23T03:51:41.118Z,100.00
2023-08-23T03:54:09.067Z,100.00
2023-08-23T03:56:38.703Z,100.00
2023-08-23T03:59:06.701Z,100.00
2023-08-23T04:01:35.093Z,100.00
2023-08-23T04:04:03.224Z,100.00
2023-08-23T04:06:31.265Z,100.00
2023-08-23T04:08:59.295Z,100.00
2023-08-23T04:11:27.305Z,100.00
2023-08-23T04:13:56.631Z,100.00
2023-08-23T04:16:24.737Z,100.00
2023-08-23T04:18:52.716Z,100.00
2023-08-23T04:21:20.708Z,100.00
2023-08-23T04:23:48.729Z,100.00
2023-08-23T04:26:16.738Z,100.00
2023-08-23T04:28:44.706Z,100.00
2023-08-23T04:31:14.065Z,100.00
2023-08-23T04:33:43.213Z,100.00
2023-08-23T04:36:11.207Z,100.00
2023-08-23T04:38:39.207Z,100.00
2023-08-23T04:41:07.229Z,99.29
2023-08-23T04:43:35.224Z,91.40
2023-08-23T04:46:03.273Z,86.26
2023-08-23T04:48:32.763Z,81.91
2023-08-23T04:51:00.794Z,76.74
2023-08-23T04:53:28.884Z,72.53
2023-08-23T04:55:58.046Z,69.39
2023-08-23T04:58:28.615Z,65.79
2023-08-23T05:00:59.906Z,62.60
2023-08-23T05:03:27.976Z,59.28
2023-08-23T05:05:57.311Z,56.21
2023-08-23T05:08:25.304Z,52.86
2023-08-23T05:10:53.927Z,51.17
2023-08-23T05:13:21.931Z,49.43
2023-08-23T05:15:53.475Z,47.07
2023-08-23T05:18:21.575Z,44.51
2023-08-23T05:20:54.004Z,44.29
2023-08-23T05:23:23.499Z,42.55
2023-08-23T05:25:52.385Z,41.54
2023-08-23T05:28:20.610Z,40.86
2023-08-23T05:30:48.617Z,39.03
2023-08-23T05:33:16.661Z,36.43
2023-08-23T05:35:45.167Z,36.23
2023-08-23T05:38:13.165Z,35.34
2023-08-23T05:40:42.505Z,35.00
2023-08-23T05:43:10.557Z,36.08
2023-08-23T05:45:38.599Z,34.95
2023-08-23T05:48:07.462Z,35.39
2023-08-23T05:50:35.707Z,34.22
2023-08-23T05:53:10.235Z,34.60
2023-08-23T05:55:38.699Z,34.78
2023-08-23T05:58:08.052Z,34.31
2023-08-23T06:00:36.282Z,33.28
2023-08-23T06:03:04.410Z,33.20
2023-08-23T06:05:32.409Z,33.92
2023-08-23T06:08:00.376Z,34.21
2023-08-23T06:10:28.381Z,34.24
2023-08-23T06:12:56.344Z,34.49
2023-08-23T06:15:25.960Z,35.55
2023-08-23T06:17:54.423Z,37.18
2023-08-23T06:20:22.407Z,35.66
2023-08-23T06:22:50.524Z,35.36
2023-08-23T06:25:18.462Z,34.35
2023-08-23T06:27:46.853Z,34.10
2023-08-23T06:30:17.354Z,33.62
2023-08-23T06:32:48.508Z,32.04
2023-08-23T06:35:17.256Z,31.99
2023-08-23T06:37:45.714Z,31.58
2023-08-23T06:40:14.127Z,32.19
2023-08-23T06:42:42.241Z,33.97
2023-08-23T06:45:11.048Z,34.24
2023-08-23T06:47:39.279Z,34.05
2023-08-23T06:50:12.900Z,34.19
2023-08-23T06:52:42.696Z,33.31
2023-08-23T06:55:10.987Z,33.58
2023-08-23T06:57:40.942Z,33.19
2023-08-23T07:00:10.124Z,33.83
2023-08-23T07:02:38.156Z,34.07
2023-08-23T07:05:08.279Z,32.69
2023-08-23T07:07:36.232Z,32.07
2023-08-23T07:10:14.344Z,32.36
2023-08-23T07:12:52.639Z,31.13
2023-08-23T07:15:20.737Z,31.25
2023-08-23T07:17:49.074Z,32.06
2023-08-23T07:20:18.725Z,31.88
2023-08-23T07:22:46.696Z,33.22
2023-08-23T07:25:14.624Z,34.18
2023-08-23T07:27:42.641Z,34.80
2023-08-23T07:30:11.565Z,35.28
2023-08-23T07:32:39.580Z,35.46
2023-08-23T07:35:09.193Z,35.53
2023-08-23T07:37:39.571Z,35.29
2023-08-23T07:40:10.933Z,36.69
2023-08-23T07:42:39.229Z,36.38
2023-08-23T07:45:08.347Z,37.70
2023-08-23T07:47:36.645Z,37.41
2023-08-23T07:50:05.509Z,37.60
2023-08-23T07:52:33.630Z,38.46
2023-08-23T07:55:02.971Z,38.32
2023-08-23T07:57:31.078Z,37.60
2023-08-23T08:00:01.134Z,36.05
2023-08-23T08:02:32.517Z,35.36
2023-08-23T08:05:00.790Z,34.00
2023-08-23T08:08:00.739Z,32.59
2023-08-23T08:10:21.212Z,33.21
2023-08-23T08:12:49.228Z,32.14
2023-08-23T08:15:17.568Z,31.41
2023-08-23T08:17:46.180Z,29.98
2023-08-23T08:20:14.610Z,30.33
2023-08-23T08:22:43.330Z,31.30
2023-08-23T08:25:14.164Z,30.60
2023-08-23T08:27:43.999Z,30.78
2023-08-23T08:30:12.696Z,30.85
2023-08-23T08:32:40.773Z,30.79
2023-08-23T08:35:09.550Z,31.30
2023-08-23T08:37:37.562Z,31.94
2023-08-23T08:40:07.861Z,32.23
2023-08-23T08:42:35.995Z,32.69
2023-08-23T08:45:06.397Z,31.91
2023-08-23T08:47:34.440Z,33.38
2023-08-23T08:50:02.506Z,33.81
2023-08-23T08:52:30.903Z,32.84
2023-08-23T08:54:59.886Z,33.88
2023-08-23T08:57:28.606Z,35.57
2023-08-23T08:59:56.828Z,34.38
2023-08-23T09:02:26.827Z,35.16
2023-08-23T09:04:54.762Z,33.77
2023-08-23T09:07:22.754Z,33.25
2023-08-23T09:09:50.794Z,34.36
2023-08-23T09:12:18.877Z,33.14
2023-08-23T09:14:50.567Z,33.63
2023-08-23T09:17:24.101Z,33.01
2023-08-23T09:19:53.749Z,32.32
2023-08-23T09:22:22.169Z,32.45
2023-08-23T09:24:50.501Z,32.51
2023-08-23T09:27:31.132Z,32.71
2023-08-23T09:30:06.329Z,32.59
2023-08-23T09:32:34.508Z,31.92
2023-08-23T09:35:12.725Z,31.12
2023-08-23T09:37:43.922Z,30.39
2023-08-23T09:40:21.761Z,30.36
2023-08-23T09:42:49.791Z,29.80
2023-08-23T09:45:19.410Z,31.01
2023-08-23T09:47:49.487Z,30.41
2023-08-23T09:50:19.928Z,29.60
2023-08-23T09:52:48.964Z,29.61
2023-08-23T09:55:16.965Z,27.17
2023-08-23T09:57:45.329Z,26.55
2023-08-23T10:00:14.305Z,26.91
2023-08-23T10:02:42.375Z,26.66
2023-08-23T10:05:12.936Z,26.20
2023-08-23T10:07:42.482Z,24.81
2023-08-23T10:10:11.523Z,24.73
2023-08-23T10:12:41.387Z,25.72
2023-08-23T10:15:10.750Z,23.83
2023-08-23T10:17:38.743Z,23.38
2023-08-23T10:20:08.061Z,22.40
2023-08-23T10:22:36.713Z,23.82
2023-08-23T10:25:16.454Z,22.32
2023-08-23T10:27:47.316Z,23.41
2023-08-23T10:30:20.863Z,23.97
2023-08-23T10:32:49.338Z,25.32
2023-08-23T10:35:29.915Z,22.93
2023-08-23T10:37:58.822Z,24.49
2023-08-23T10:40:30.663Z,24.47
2023-08-23T10:42:58.684Z,22.82
2023-08-23T10:45:26.846Z,23.02
2023-08-23T10:47:54.991Z,22.70
2023-08-23T10:50:23.072Z,23.85
2023-08-23T10:52:51.472Z,23.85
2023-08-23T10:55:19.687Z,22.44
2023-08-23T10:57:49.306Z,22.31
2023-08-23T11:00:18.421Z,23.02
2023-08-23T11:02:46.402Z,22.69
2023-08-23T11:05:14.388Z,20.85
2023-08-23T11:07:42.380Z,21.99
2023-08-23T11:10:11.565Z,21.63
2023-08-23T11:12:40.478Z,21.82
2023-08-23T11:15:10.840Z,21.38
2023-08-23T11:17:39.130Z,22.23
2023-08-23T11:20:09.619Z,22.63
2023-08-23T11:22:37.660Z,21.98
2023-08-23T11:25:06.208Z,21.92
2023-08-23T11:27:34.808Z,22.05
2023-08-23T11:30:03.949Z,22.41
2023-08-23T11:32:33.568Z,22.70
2023-08-23T11:35:02.231Z,21.94
2023-08-23T11:37:30.571Z,23.77
2023-08-23T11:39:58.684Z,24.04
2023-08-23T11:42:27.408Z,23.65
2023-08-23T11:44:56.334Z,23.63
2023-08-23T11:47:26.697Z,24.99
2023-08-23T11:49:56.081Z,24.92
2023-08-23T11:52:24.125Z,25.58
2023-08-23T11:54:52.602Z,23.90
2023-08-23T11:57:20.623Z,24.28
2023-08-23T11:59:48.770Z,24.59
2023-08-23T12:02:16.769Z,23.71
2023-08-23T12:04:45.366Z,23.88
2023-08-23T12:07:14.917Z,22.80
2023-08-23T12:09:42.861Z,23.15
2023-08-23T12:12:10.936Z,23.11
2023-08-23T12:14:38.903Z,23.14
2023-08-23T12:17:07.024Z,22.79
2023-08-23T12:19:37.781Z,22.70
2023-08-23T12:22:07.854Z,22.26
2023-08-23T12:24:37.287Z,23.88
2023-08-23T12:27:06.171Z,22.38
2023-08-23T12:29:34.221Z,24.95
2023-08-23T12:32:02.303Z,23.55
2023-08-23T12:34:30.325Z,25.23
2023-08-23T12:36:58.287Z,24.16
2023-08-23T12:39:26.282Z,23.74
2023-08-23T12:41:55.648Z,24.21
2023-08-23T12:44:23.619Z,24.30
2023-08-23T12:46:51.592Z,25.52
2023-08-23T12:49:19.615Z,25.50
2023-08-23T12:51:47.715Z,27.19
2023-08-23T12:54:15.730Z,27.24
2023-08-23T12:56:43.716Z,27.31
2023-08-23T12:59:13.061Z,27.43
2023-08-23T13:01:41.068Z,27.81
2023-08-23T13:04:09.107Z,27.09
2023-08-23T13:06:37.043Z,28.38
2023-08-23T13:09:06.454Z,29.64
2023-08-23T13:11:34.513Z,30.75
2023-08-23T13:14:02.534Z,29.51
2023-08-23T13:16:31.976Z,29.64
2023-08-23T13:19:00.371Z,29.48
2023-08-23T13:21:28.449Z,30.47
2023-08-23T13:23:59.475Z,29.14
2023-08-23T13:26:28.241Z,30.88
2023-08-23T13:28:56.214Z,31.16
2023-08-23T13:31:25.293Z,30.05
2023-08-23T13:33:54.761Z,29.42
2023-08-23T13:36:22.714Z,30.04
2023-08-23T13:38:50.689Z,30.49
2023-08-23T13:41:18.666Z,29.91
2023-08-23T13:43:46.619Z,29.40
2023-08-23T13:46:14.639Z,31.01
2023-08-23T13:48:45.253Z,28.87
2023-08-23T13:51:14.756Z,29.81
2023-08-23T13:53:44.764Z,30.99
2023-08-23T13:56:14.121Z,29.79
2023-08-23T13:58:42.232Z,29.90
2023-08-23T14:01:10.253Z,28.23
2023-08-23T14:03:38.234Z,28.94
2023-08-23T14:06:06.544Z,30.58
2023-08-23T14:08:35.875Z,31.15
2023-08-23T14:11:04.157Z,32.38
2023-08-23T14:13:32.167Z,32.97
2023-08-23T14:16:00.250Z,32.67
2023-08-23T14:18:28.364Z,31.19
2023-08-23T14:20:56.673Z,32.94
2023-08-23T14:23:24.634Z,32.51
2023-08-23T14:25:54.017Z,32.34
2023-08-23T14:28:22.086Z,32.49
2023-08-23T14:30:50.195Z,33.56
2023-08-23T14:33:18.262Z,32.50
2023-08-23T14:38:15.402Z,32.63
2023-08-23T14:40:44.086Z,32.99
2023-08-23T14:43:13.481Z,33.38
2023-08-23T14:45:42.475Z,33.69
2023-08-23T14:48:10.480Z,32.41
2023-08-23T14:50:38.454Z,33.96
2023-08-23T14:53:06.631Z,33.36
2023-08-23T14:55:35.685Z,31.57
2023-08-23T14:58:03.725Z,32.44
2023-08-23T15:00:34.506Z,31.71
2023-08-23T15:03:03.972Z,31.85
2023-08-23T15:05:32.116Z,31.22
2023-08-23T15:08:00.071Z,31.73
2023-08-23T15:10:28.082Z,31.63
2023-08-23T15:12:56.121Z,32.15
2023-08-23T15:15:24.100Z,30.79
2023-08-23T15:17:53.575Z,30.04
2023-08-23T15:20:21.745Z,30.22
2023-08-23T15:22:49.712Z,30.65
2023-08-23T15:25:18.423Z,30.72
2023-08-23T15:27:49.769Z,30.94
2023-08-23T15:30:17.957Z,30.12
2023-08-23T15:32:46.503Z,29.67
2023-08-23T15:35:15.869Z,29.64
2023-08-23T15:37:43.985Z,30.36
2023-08-23T15:40:12.806Z,31.24
2023-08-23T15:42:41.714Z,31.13
2023-08-23T15:45:10.361Z,32.33
2023-08-23T15:47:38.409Z,30.73
2023-08-23T15:50:07.409Z,31.71
2023-08-23T15:52:36.820Z,31.50
2023-08-23T15:55:05.679Z,32.43
2023-08-23T15:57:33.720Z,30.71
2023-08-23T16:00:01.704Z,31.83
2023-08-23T16:02:29.697Z,30.72
2023-08-23T16:04:57.692Z,30.73
2023-08-23T16:07:26.074Z,31.47
2023-08-23T16:09:55.987Z,31.03
2023-08-23T16:12:24.557Z,32.06
2023-08-23T16:14:52.538Z,32.79
2023-08-23T16:17:20.524Z,32.72
2023-08-23T16:19:48.511Z,32.86
2023-08-23T16:22:16.489Z,33.11
2023-08-23T16:24:44.479Z,33.11
2023-08-23T16:27:13.846Z,34.49
2023-08-23T16:29:41.848Z,34.32
2023-08-23T16:32:09.874Z,33.98
2023-08-23T16:34:37.988Z,34.22
2023-08-23T16:37:06.134Z,34.26
2023-08-23T16:39:34.166Z,34.49
2023-08-23T16:42:02.139Z,35.74
2023-08-23T16:44:31.456Z,35.87
2023-08-23T16:46:59.477Z,37.04
2023-08-23T16:49:27.482Z,36.23
2023-08-23T16:51:56.501Z,37.33
2023-08-23T16:54:24.546Z,38.52
2023-08-23T16:56:52.543Z,38.54
2023-08-23T16:59:20.488Z,39.26
2023-08-23T17:01:49.938Z,40.06
2023-08-23T17:04:17.961Z,40.84
2023-08-23T17:06:48.237Z,42.41
2023-08-23T17:09:16.912Z,45.15
2023-08-23T17:11:45.614Z,45.79
2023-08-23T17:14:13.595Z,50.21
2023-08-23T17:16:41.826Z,54.49
2023-08-23T17:19:11.212Z,56.97
2023-08-23T17:21:39.560Z,59.42
2023-08-23T17:24:07.781Z,61.30
2023-08-23T17:26:35.819Z,64.17
2023-08-23T17:29:03.761Z,65.67
2023-08-23T17:31:31.811Z,69.74
2023-08-23T17:33:59.846Z,67.01
2023-08-23T17:36:29.180Z,66.93
2023-08-23T17:38:57.405Z,68.44
2023-08-23T17:41:25.441Z,66.15
2023-08-23T17:43:54.953Z,65.98
2023-08-23T17:46:36.260Z,67.27
2023-08-23T17:49:04.644Z,66.82
2023-08-23T17:51:34.050Z,70.53
2023-08-23T17:54:02.065Z,67.40
2023-08-23T17:56:30.028Z,66.38
2023-08-23T17:58:58.032Z,67.00
2023-08-23T18:01:25.994Z,69.37
2023-08-23T18:03:53.962Z,69.73
2023-08-23T18:06:21.921Z,65.39
2023-08-23T18:08:51.256Z,67.58
2023-08-23T18:11:19.268Z,67.10
2023-08-23T18:13:47.262Z,68.08
2023-08-23T18:16:15.274Z,65.55
2023-08-23T18:18:43.311Z,65.62
2023-08-23T18:21:11.290Z,66.73
2023-08-23T18:23:39.299Z,67.23
2023-08-23T18:26:08.672Z,67.88
2023-08-23T18:28:36.667Z,69.21
2023-08-23T18:31:04.764Z,71.22
2023-08-23T18:33:36.279Z,68.70
2023-08-23T18:36:04.428Z,67.45
2023-08-23T18:38:32.438Z,67.27
2023-08-23T18:41:03.753Z,66.88
2023-08-23T18:43:33.401Z,68.42
2023-08-23T18:46:01.386Z,67.04
2023-08-23T18:48:29.431Z,67.70
2023-08-23T18:51:00.738Z,69.61
2023-08-23T18:53:28.821Z,70.65
2023-08-23T18:55:56.791Z,69.72
2023-08-23T18:58:24.804Z,71.67
2023-08-23T19:00:58.619Z,72.51
2023-08-23T19:03:27.567Z,71.69
2023-08-23T19:05:55.728Z,74.11
2023-08-23T19:08:23.729Z,78.87
2023-08-23T19:10:51.683Z,74.49
2023-08-23T19:13:19.696Z,78.17
2023-08-23T19:15:47.686Z,73.09
2023-08-23T19:18:17.126Z,72.83
2023-08-23T19:20:45.103Z,72.69
2023-08-23T19:23:13.085Z,69.60
2023-08-23T19:25:42.055Z,69.43
2023-08-23T19:28:10.058Z,69.37
2023-08-23T19:30:38.025Z,70.62
2023-08-23T19:33:06.195Z,69.35
2023-08-23T19:35:42.931Z,68.65
2023-08-23T19:38:10.943Z,69.85
2023-08-23T19:40:38.978Z,68.06
2023-08-23T19:43:07.048Z,68.87
2023-08-23T19:45:35.139Z,69.46
2023-08-23T19:48:20.519Z,68.90
2023-08-23T19:50:53.157Z,72.07
2023-08-23T19:53:21.114Z,71.40
2023-08-23T19:55:49.065Z,71.31
2023-08-23T19:58:19.889Z,73.71
2023-08-23T20:00:47.908Z,74.03
2023-08-23T20:03:16.077Z,73.73
2023-08-23T20:05:45.370Z,72.20
2023-08-23T20:08:14.703Z,73.37
2023-08-23T20:10:42.705Z,71.35
2023-08-23T20:13:10.695Z,70.34
2023-08-23T20:15:38.666Z,71.47
2023-08-23T20:18:06.760Z,70.87
2023-08-23T20:20:35.131Z,71.55
2023-08-23T20:23:03.094Z,71.55
2023-08-23T20:25:32.476Z,71.84
2023-08-23T20:28:00.426Z,73.56
2023-08-23T20:30:28.408Z,74.74
2023-08-23T20:32:56.461Z,74.70
2023-08-23T20:35:24.726Z,75.70
2023-08-23T20:37:52.730Z,76.02
2023-08-23T20:40:21.685Z,76.71
2023-08-23T20:42:51.386Z,76.89
2023-08-23T20:45:21.195Z,77.24
2023-08-23T20:47:49.808Z,76.35
2023-08-23T20:50:18.088Z,75.29
2023-08-23T20:52:46.508Z,73.54
2023-08-23T20:55:14.849Z,72.92
2023-08-23T20:57:42.821Z,76.58
2023-08-23T21:00:13.021Z,80.35
2023-08-23T21:02:41.017Z,80.54
2023-08-23T21:05:09.143Z,79.91
2023-08-23T21:07:37.167Z,78.30
2023-08-23T21:10:05.956Z,78.57
2023-08-23T21:12:33.887Z,78.95
2023-08-23T21:15:01.897Z,80.01
2023-08-23T21:17:31.323Z,79.83
2023-08-23T21:19:59.345Z,78.10
2023-08-23T21:22:27.394Z,80.56
2023-08-23T21:24:55.368Z,78.87
2023-08-23T21:27:23.370Z,80.39
2023-08-23T21:29:51.897Z,82.11
2023-08-23T21:32:19.896Z,82.63
2023-08-23T21:34:49.228Z,81.00
2023-08-23T21:37:17.223Z,81.53
2023-08-23T21:39:45.197Z,80.74
2023-08-23T21:42:13.168Z,81.07
2023-08-23T21:44:42.531Z,81.08
2023-08-23T21:47:11.537Z,81.23
2023-08-23T21:49:39.486Z,82.09
2023-08-23T21:52:08.850Z,79.89
2023-08-23T21:54:36.806Z,80.30
2023-08-23T21:57:05.170Z,80.50
2023-08-23T21:59:33.158Z,79.93
2023-08-23T22:02:01.136Z,79.54
2023-08-23T22:04:29.180Z,79.85
2023-08-23T22:06:57.142Z,82.23
2023-08-23T22:09:26.877Z,80.90
2023-08-23T22:11:55.028Z,81.16
2023-08-23T22:14:23.394Z,80.27
2023-08-23T22:16:51.407Z,79.68
2023-08-23T22:19:19.810Z,81.08
2023-08-23T22:21:48.614Z,82.47
2023-08-23T22:24:16.570Z,82.45
2023-08-23T22:26:45.973Z,82.16
2023-08-23T22:29:13.956Z,83.78
2023-08-23T22:31:41.925Z,83.37
2023-08-23T22:34:09.893Z,82.68
2023-08-23T22:36:37.855Z,82.88
2023-08-23T22:39:05.899Z,83.43
2023-08-23T22:41:33.892Z,82.60
2023-08-23T22:44:03.242Z,83.60
2023-08-23T22:46:32.624Z,83.34
2023-08-23T22:49:01.334Z,84.02
2023-08-23T22:51:29.452Z,85.38
2023-08-23T22:53:57.387Z,83.62
2023-08-23T22:56:25.379Z,85.22
2023-08-23T22:58:53.408Z,84.13
2023-08-23T23:01:22.859Z,81.82
2023-08-23T23:03:50.974Z,81.11
2023-08-23T23:06:19.007Z,81.36
2023-08-23T23:08:47.132Z,81.70
2023-08-23T23:11:15.150Z,79.73
2023-08-23T23:13:43.141Z,80.85
2023-08-23T23:16:11.267Z,81.46
2023-08-23T23:18:41.214Z,82.37
2023-08-23T23:21:09.185Z,81.07
2023-08-23T23:23:37.176Z,82.39
2023-08-23T23:26:05.109Z,81.08
2023-08-23T23:28:33.076Z,81.44
2023-08-23T23:31:06.525Z,82.07
2023-08-23T23:33:34.730Z,80.19
2023-08-23T23:36:04.088Z,80.47
2023-08-23T23:38:32.174Z,80.09
2023-08-23T23:41:03.430Z,79.98
2023-08-23T23:43:31.490Z,81.76
2023-08-23T23:45:59.797Z,81.26
2023-08-23T23:48:27.919Z,80.79
2023-08-23T23:50:55.894Z,79.77
2023-08-23T23:53:25.363Z,79.70
2023-08-23T23:55:53.299Z,77.75
2023-08-23T23:58:21.261Z,78.86
